Terminal Aerodrome Forecast
Issued by NWS

Current Version | Previous Version | Graphics & Text | Print | Product List | Glossary On
Versions: 1 2 3 4 5 6 7 8 9 10 11 12 13 14 15 16
000
FTUS41 KILN 201100
TAFLCK
TAF
KLCK 201134Z 2012/2112 06003KT P6SM SCT250
     FM201500 14006KT P6SM SCT250
     FM201800 18007KT P6SM FEW050 SCT250
     FM210000 15003KT P6SM SCT050 BKN250=

USA.gov is the U.S. government's official web portal to all federal, state and local government web resources and services.